createdAt,value
2023-03-31T00:02:14.034Z,10.10
2023-03-31T00:04:46.453Z,11.50
2023-03-31T00:07:14.771Z,10.90
2023-03-31T00:09:46.229Z,10.55
2023-03-31T00:12:16.729Z,10.98
2023-03-31T00:14:43.886Z,9.93
2023-03-31T00:17:11.560Z,12.23
2023-03-31T00:19:40.229Z,11.20
2023-03-31T00:22:07.158Z,13.40
2023-03-31T00:24:34.306Z,14.30
2023-03-31T00:27:04.520Z,12.05
2023-03-31T00:29:33.644Z,9.73
2023-03-31T00:32:00.556Z,13.82
2023-03-31T00:34:28.044Z,10.60
2023-03-31T00:36:56.836Z,13.60
2023-03-31T00:39:28.125Z,10.10
2023-03-31T00:41:54.872Z,10.07
2023-03-31T00:44:25.581Z,11.98
2023-03-31T00:46:55.962Z,12.40
2023-03-31T00:49:30.208Z,10.23
2023-03-31T00:52:08.440Z,9.63
2023-03-31T00:54:35.777Z,11.98
2023-03-31T00:57:03.734Z,9.85
2023-03-31T00:59:31.749Z,9.60
2023-03-31T01:01:59.348Z,9.70
2023-03-31T01:04:26.536Z,10.65
2023-03-31T01:07:04.030Z,12.52
2023-03-31T01:09:35.005Z,11.48
2023-03-31T01:12:03.588Z,11.75
2023-03-31T01:14:31.364Z,11.48
2023-03-31T01:16:58.189Z,12.68
2023-03-31T01:20:01.943Z,12.02
2023-03-31T01:22:53.114Z,12.05
2023-03-31T01:25:38.765Z,12.50
2023-03-31T01:28:23.481Z,14.20
2023-03-31T01:31:23.058Z,10.00
2023-03-31T01:34:27.587Z,9.52
2023-03-31T01:37:14.824Z,12.75
2023-03-31T01:40:28.725Z,11.30
2023-03-31T01:42:59.698Z,12.07
2023-03-31T01:45:28.243Z,11.10
2023-03-31T01:48:03.077Z,10.07
2023-03-31T01:51:03.525Z,10.20
2023-03-31T01:53:34.879Z,11.77
2023-03-31T01:56:16.180Z,12.18
2023-03-31T01:58:47.782Z,10.52
2023-03-31T02:01:22.512Z,12.10
2023-03-31T02:03:54.233Z,11.68
2023-03-31T02:06:24.549Z,11.40
2023-03-31T02:08:57.456Z,12.50
2023-03-31T02:11:24.360Z,10.77
2023-03-31T02:13:52.623Z,10.02
2023-03-31T02:16:24.549Z,11.32
2023-03-31T02:18:53.932Z,11.23
2023-03-31T02:21:20.694Z,10.20
2023-03-31T02:23:47.728Z,11.02
2023-03-31T02:26:25.139Z,11.35
2023-03-31T02:28:52.243Z,10.20
2023-03-31T02:32:00.966Z,9.48
2023-03-31T02:34:28.181Z,10.00
2023-03-31T02:36:54.944Z,9.80
2023-03-31T02:39:25.614Z,10.10
2023-03-31T02:41:52.369Z,12.68
2023-03-31T02:44:19.478Z,10.07
2023-03-31T02:46:46.294Z,9.40
2023-03-31T02:49:13.467Z,10.48
2023-03-31T02:51:46.917Z,10.40
2023-03-31T02:54:35.311Z,11.02
2023-03-31T02:57:12.460Z,12.88
2023-03-31T02:59:58.251Z,10.55
2023-03-31T03:02:31.045Z,11.63
2023-03-31T03:05:27.476Z,12.60
2023-03-31T03:08:32.126Z,10.98
2023-03-31T03:11:08.040Z,11.00
2023-03-31T03:13:48.049Z,12.82
2023-03-31T03:16:24.782Z,10.95
2023-03-31T03:18:59.153Z,10.55
2023-03-31T03:21:26.649Z,9.15
2023-03-31T03:23:53.584Z,9.55
2023-03-31T03:26:24.480Z,10.02
2023-03-31T03:28:51.442Z,9.70
2023-03-31T03:31:19.463Z,8.48
2023-03-31T03:33:46.554Z,9.07
2023-03-31T03:36:13.798Z,9.80
2023-03-31T03:38:40.754Z,8.80
2023-03-31T03:41:07.837Z,8.45
2023-03-31T03:43:34.600Z,9.98
2023-03-31T03:46:01.905Z,8.00
2023-03-31T03:48:28.730Z,8.43
2023-03-31T03:50:55.928Z,10.82
2023-03-31T03:53:22.680Z,9.70
2023-03-31T03:55:49.840Z,9.38
2023-03-31T03:58:17.299Z,8.85
2023-03-31T04:00:45.408Z,7.75
2023-03-31T04:03:13.072Z,10.48
2023-03-31T04:05:40.258Z,9.75
2023-03-31T04:08:08.500Z,9.32
2023-03-31T04:10:35.956Z,11.07
2023-03-31T04:13:03.079Z,9.45
2023-03-31T04:15:30.246Z,11.13
2023-03-31T04:17:58.214Z,12.45
2023-03-31T04:20:31.580Z,11.48
2023-03-31T04:22:58.296Z,11.35
2023-03-31T04:25:25.456Z,12.82
2023-03-31T04:27:55.619Z,11.30
2023-03-31T04:30:30.769Z,12.70
2023-03-31T04:32:59.442Z,11.10
2023-03-31T04:35:28.226Z,10.95
2023-03-31T04:38:02.602Z,12.43
2023-03-31T04:40:29.749Z,11.02
2023-03-31T04:42:56.490Z,12.95
2023-03-31T04:45:23.586Z,11.73
2023-03-31T04:47:50.366Z,14.43
2023-03-31T04:50:17.698Z,11.82
2023-03-31T04:52:44.826Z,14.00
2023-03-31T04:55:11.928Z,16.40
2023-03-31T04:57:38.704Z,12.65
2023-03-31T05:00:09.218Z,10.77
2023-03-31T05:02:36.134Z,11.88
2023-03-31T05:05:04.545Z,13.82
2023-03-31T05:07:31.599Z,12.00
2023-03-31T05:09:58.726Z,13.27
2023-03-31T05:12:25.986Z,10.73
2023-03-31T05:14:53.112Z,12.52
2023-03-31T05:17:19.883Z,14.77
2023-03-31T05:19:46.922Z,12.35
2023-03-31T05:22:13.706Z,16.15
2023-03-31T05:24:40.726Z,18.23
2023-03-31T05:27:07.558Z,12.55
2023-03-31T05:29:34.723Z,13.27
2023-03-31T05:32:01.741Z,13.25
2023-03-31T05:34:28.997Z,8.90
2023-03-31T05:36:55.893Z,12.75
2023-03-31T05:39:22.986Z,12.98
2023-03-31T05:41:49.754Z,12.32
2023-03-31T05:44:16.958Z,14.18
2023-03-31T05:46:44.167Z,13.85
2023-03-31T05:49:11.971Z,12.68
2023-03-31T05:51:38.725Z,13.75
2023-03-31T05:54:06.505Z,11.35
2023-03-31T05:56:33.684Z,9.85
2023-03-31T05:59:01.390Z,14.90
2023-03-31T06:01:30.195Z,12.40
2023-03-31T06:03:57.447Z,11.10
2023-03-31T06:06:25.427Z,14.25
2023-03-31T06:08:52.649Z,39.55
2023-03-31T06:11:21.055Z,31.63
2023-03-31T06:13:48.654Z,28.33
2023-03-31T06:16:17.213Z,30.23
2023-03-31T06:18:44.472Z,29.05
2023-03-31T06:21:16.694Z,34.33
2023-03-31T06:23:47.132Z,34.58
2023-03-31T06:26:15.712Z,34.92
2023-03-31T06:28:43.574Z,35.28
2023-03-31T06:31:14.782Z,33.28
2023-03-31T06:34:21.578Z,34.03
2023-03-31T06:39:21.657Z,29.80
2023-03-31T06:41:48.471Z,24.50
2023-03-31T06:44:19.380Z,27.52
2023-03-31T06:46:46.273Z,22.20
2023-03-31T06:49:13.518Z,23.42
2023-03-31T06:51:40.564Z,24.95
2023-03-31T06:54:07.638Z,22.00
2023-03-31T06:56:34.634Z,21.25
2023-03-31T06:59:01.710Z,21.00
2023-03-31T07:01:28.533Z,20.15
2023-03-31T07:03:55.886Z,20.80
2023-03-31T07:06:53.766Z,18.75
2023-03-31T07:09:23.473Z,20.05
2023-03-31T07:11:50.280Z,17.63
2023-03-31T07:14:17.402Z,13.70
2023-03-31T07:16:44.340Z,16.38
2023-03-31T07:19:11.537Z,15.85
2023-03-31T07:21:38.295Z,13.75
2023-03-31T07:24:05.820Z,14.40
2023-03-31T07:26:32.719Z,14.20
2023-03-31T07:28:59.976Z,16.63
2023-03-31T07:31:26.835Z,13.02
2023-03-31T07:33:53.956Z,14.95
2023-03-31T07:36:20.927Z,15.10
2023-03-31T07:38:49.686Z,14.15
2023-03-31T07:41:20.524Z,15.05
2023-03-31T07:43:47.849Z,11.40
2023-03-31T07:46:22.873Z,14.30
2023-03-31T07:51:18.444Z,16.73
2023-03-31T07:53:46.005Z,12.02
2023-03-31T07:56:12.904Z,11.70
2023-03-31T07:58:40.003Z,14.23
2023-03-31T08:01:08.253Z,11.50
2023-03-31T08:03:35.571Z,10.75
2023-03-31T08:06:02.428Z,11.60
2023-03-31T08:08:29.545Z,11.52
2023-03-31T08:10:56.386Z,11.93
2023-03-31T08:13:23.517Z,12.23
2023-03-31T08:15:50.372Z,11.25
2023-03-31T08:18:17.636Z,11.05
2023-03-31T08:20:44.430Z,12.00
2023-03-31T08:23:12.151Z,11.00
2023-03-31T08:25:38.978Z,11.57
2023-03-31T08:28:06.949Z,14.85
2023-03-31T08:30:33.876Z,12.48
2023-03-31T08:33:00.992Z,11.38
2023-03-31T08:35:27.828Z,10.05
2023-03-31T08:37:54.948Z,11.27
2023-03-31T08:40:26.341Z,11.75
2023-03-31T08:42:55.566Z,12.52
2023-03-31T08:45:23.536Z,13.68
2023-03-31T08:47:58.619Z,9.70
2023-03-31T08:50:27.670Z,10.23
2023-03-31T08:53:04.075Z,13.15
2023-03-31T08:55:42.465Z,11.02
2023-03-31T08:58:15.948Z,12.18
2023-03-31T09:00:52.485Z,9.93
2023-03-31T09:03:26.115Z,8.80
2023-03-31T09:06:07.187Z,11.30
2023-03-31T09:08:35.805Z,11.88
2023-03-31T09:11:32.478Z,9.77
2023-03-31T09:14:18.466Z,9.77
2023-03-31T09:19:25.722Z,8.38
2023-03-31T09:21:53.308Z,8.05
2023-03-31T09:24:27.460Z,8.88
2023-03-31T09:27:07.620Z,9.80
2023-03-31T09:29:38.666Z,8.27
2023-03-31T09:32:18.103Z,6.35
2023-03-31T09:34:46.268Z,8.70
2023-03-31T09:37:13.155Z,7.28
2023-03-31T09:39:40.675Z,9.00
2023-03-31T09:42:07.489Z,12.27
2023-03-31T09:44:41.383Z,5.93
2023-03-31T09:47:12.985Z,7.07
2023-03-31T09:49:40.103Z,7.38
2023-03-31T09:52:35.260Z,6.40
2023-03-31T09:55:05.586Z,6.15
2023-03-31T09:57:39.094Z,9.45
2023-03-31T10:00:16.977Z,7.18
2023-03-31T10:02:50.640Z,8.70
2023-03-31T10:05:26.103Z,5.57
2023-03-31T10:08:14.304Z,8.80
2023-03-31T10:10:45.538Z,10.23
2023-03-31T10:13:14.520Z,7.43
2023-03-31T10:15:42.438Z,8.93
2023-03-31T10:18:16.689Z,9.32
2023-03-31T10:20:45.321Z,7.45
2023-03-31T10:23:29.772Z,7.28
2023-03-31T10:25:56.887Z,8.70
2023-03-31T10:28:23.691Z,9.15
2023-03-31T10:30:55.763Z,6.45
2023-03-31T10:33:25.155Z,7.90
2023-03-31T10:36:26.235Z,12.30
2023-03-31T10:38:53.298Z,13.18
2023-03-31T10:41:24.227Z,8.38
2023-03-31T10:43:55.735Z,9.52
2023-03-31T10:46:49.323Z,8.32
2023-03-31T10:49:22.315Z,8.10
2023-03-31T10:51:59.427Z,9.27
2023-03-31T10:54:26.719Z,8.52
2023-03-31T10:57:05.619Z,14.30
2023-03-31T10:59:48.490Z,12.45
2023-03-31T11:02:51.498Z,8.40
2023-03-31T11:05:39.672Z,10.95
2023-03-31T11:08:42.599Z,10.75
2023-03-31T11:11:25.340Z,6.03
2023-03-31T11:14:08.178Z,9.60
2023-03-31T11:16:58.977Z,8.85
2023-03-31T11:19:35.657Z,10.73
2023-03-31T11:22:26.638Z,7.90
2023-03-31T11:25:03.297Z,7.82
2023-03-31T11:27:51.072Z,9.00
2023-03-31T11:30:21.702Z,8.10
2023-03-31T11:33:21.070Z,8.73
2023-03-31T11:36:06.107Z,8.18
2023-03-31T11:38:53.770Z,10.43
2023-03-31T11:41:27.444Z,5.75
2023-03-31T11:44:02.558Z,5.93
2023-03-31T11:46:56.050Z,7.22
2023-03-31T11:49:30.442Z,7.40
2023-03-31T11:52:01.361Z,7.03
2023-03-31T11:54:34.196Z,6.47
2023-03-31T11:57:10.777Z,5.88
2023-03-31T11:59:37.597Z,10.23
2023-03-31T12:02:11.551Z,6.55
2023-03-31T12:04:40.395Z,5.85
2023-03-31T12:07:31.239Z,5.90
2023-03-31T12:10:05.606Z,6.13
2023-03-31T12:12:42.360Z,8.55
2023-03-31T12:15:27.924Z,4.57
2023-03-31T12:18:02.053Z,8.25
2023-03-31T12:20:40.747Z,4.45
2023-03-31T12:23:13.052Z,6.65
2023-03-31T12:25:52.611Z,5.10
2023-03-31T12:28:19.727Z,6.38
2023-03-31T12:30:46.695Z,8.40
2023-03-31T12:33:15.773Z,7.80
2023-03-31T12:35:52.955Z,9.40
2023-03-31T12:38:22.836Z,8.13
2023-03-31T12:41:04.660Z,5.65
2023-03-31T12:43:35.783Z,6.53
2023-03-31T12:46:36.837Z,7.22
2023-03-31T12:49:07.094Z,9.43
2023-03-31T12:51:44.227Z,9.52
2023-03-31T12:54:26.998Z,5.88
2023-03-31T12:57:00.014Z,11.48
2023-03-31T12:59:41.086Z,6.93
2023-03-31T13:02:14.994Z,8.23
2023-03-31T13:04:42.437Z,6.90
2023-03-31T13:07:29.046Z,7.20
2023-03-31T13:10:01.642Z,6.22
2023-03-31T13:12:28.710Z,9.63
2023-03-31T13:14:59.543Z,7.82
2023-03-31T13:17:31.612Z,7.40
2023-03-31T13:20:38.073Z,8.07
2023-03-31T13:23:04.882Z,8.77
2023-03-31T13:25:44.988Z,8.95
2023-03-31T13:28:39.224Z,10.57
2023-03-31T13:31:07.763Z,10.65
2023-03-31T13:33:41.208Z,11.98
2023-03-31T13:36:37.854Z,8.77
2023-03-31T13:39:32.451Z,12.40
2023-03-31T13:42:34.942Z,12.40
2023-03-31T13:45:32.492Z,12.15
2023-03-31T13:48:02.727Z,8.45
2023-03-31T13:50:41.712Z,8.45
2023-03-31T13:53:20.909Z,9.18
2023-03-31T13:55:53.502Z,8.40
2023-03-31T14:01:20.901Z,8.35
2023-03-31T14:04:15.569Z,8.80
2023-03-31T14:07:02.485Z,6.93
2023-03-31T14:09:34.338Z,7.68
2023-03-31T14:12:01.942Z,7.28
2023-03-31T14:14:29.953Z,7.30
2023-03-31T14:16:57.341Z,9.10
2023-03-31T14:19:30.852Z,7.88
2023-03-31T14:22:03.663Z,8.20
2023-03-31T14:24:45.117Z,9.70
2023-03-31T14:27:21.123Z,19.13
2023-03-31T14:29:51.636Z,12.90
2023-03-31T14:32:55.562Z,13.60
2023-03-31T14:35:31.873Z,12.57
2023-03-31T14:37:59.083Z,12.13
2023-03-31T14:40:26.537Z,11.43
2023-03-31T14:42:53.419Z,11.23
2023-03-31T14:45:25.617Z,9.32
2023-03-31T14:47:59.852Z,13.07
2023-03-31T14:50:32.679Z,15.10
2023-03-31T14:53:01.364Z,18.58
2023-03-31T14:55:44.155Z,13.60
2023-03-31T14:58:24.481Z,13.32
2023-03-31T15:03:18.665Z,15.70
2023-03-31T15:05:48.815Z,11.73
2023-03-31T15:08:18.727Z,13.13
2023-03-31T15:10:54.030Z,9.75
2023-03-31T15:13:25.673Z,12.57
2023-03-31T15:15:52.797Z,14.00
2023-03-31T15:18:19.558Z,12.05
2023-03-31T15:20:46.739Z,11.50
2023-03-31T15:23:30.791Z,10.23
2023-03-31T15:25:59.145Z,12.40
2023-03-31T15:28:27.589Z,9.50
2023-03-31T15:31:03.500Z,10.80
2023-03-31T15:33:41.501Z,10.35
2023-03-31T15:36:10.628Z,17.77
2023-03-31T15:38:37.421Z,10.70
2023-03-31T15:41:04.522Z,10.52
2023-03-31T15:43:45.229Z,16.63
2023-03-31T15:46:40.030Z,12.45
2023-03-31T15:49:21.070Z,13.43
2023-03-31T15:51:48.777Z,13.05
2023-03-31T15:54:40.974Z,12.55
2023-03-31T15:57:09.075Z,13.32
2023-03-31T15:59:55.779Z,13.93
2023-03-31T16:02:27.962Z,11.10
2023-03-31T16:04:56.979Z,14.52
2023-03-31T16:07:27.414Z,14.60
2023-03-31T16:09:57.379Z,13.10
2023-03-31T16:12:32.204Z,9.63
2023-03-31T16:15:05.894Z,12.52
2023-03-31T16:17:36.760Z,9.15
2023-03-31T16:20:07.570Z,12.35
2023-03-31T16:22:43.303Z,12.55
2023-03-31T16:25:21.366Z,10.95
2023-03-31T16:27:54.641Z,9.52
2023-03-31T16:30:23.722Z,12.75
2023-03-31T16:33:10.154Z,12.32
2023-03-31T16:35:38.615Z,15.48
2023-03-31T16:38:06.756Z,13.48
2023-03-31T16:40:38.632Z,15.60
2023-03-31T16:43:15.897Z,15.68
2023-03-31T16:45:52.917Z,16.02
2023-03-31T16:48:20.889Z,16.85
2023-03-31T16:50:49.066Z,17.98
2023-03-31T16:53:22.224Z,13.23
2023-03-31T16:55:49.359Z,11.98
2023-03-31T16:58:16.677Z,14.25
2023-03-31T17:00:43.694Z,14.75
2023-03-31T17:03:11.830Z,15.48
2023-03-31T17:05:43.493Z,17.50
2023-03-31T17:08:11.148Z,16.52
2023-03-31T17:10:38.832Z,16.98
2023-03-31T17:13:06.546Z,16.58
2023-03-31T17:15:36.436Z,16.23
2023-03-31T17:18:06.334Z,18.38
2023-03-31T17:20:34.263Z,19.40
2023-03-31T17:23:01.636Z,17.50
2023-03-31T17:25:28.565Z,18.42
2023-03-31T17:27:56.281Z,18.05
2023-03-31T17:30:23.289Z,14.45
2023-03-31T17:32:51.563Z,14.30
2023-03-31T17:35:22.632Z,17.63
2023-03-31T17:37:51.669Z,18.77
2023-03-31T17:40:18.452Z,15.23
2023-03-31T17:42:47.210Z,12.30
2023-03-31T17:45:14.338Z,15.00
2023-03-31T17:47:42.066Z,12.30
2023-03-31T17:50:09.403Z,14.35
2023-03-31T17:52:36.653Z,12.02
2023-03-31T17:55:04.336Z,12.77
2023-03-31T17:57:32.191Z,15.48
2023-03-31T17:59:59.195Z,14.05
2023-03-31T18:02:26.344Z,15.95
2023-03-31T18:04:53.476Z,13.98
2023-03-31T18:07:23.147Z,12.05
2023-03-31T18:09:49.947Z,12.70
2023-03-31T18:12:17.683Z,13.05
2023-03-31T18:14:44.654Z,12.02
2023-03-31T18:17:14.911Z,12.65
2023-03-31T18:19:42.883Z,12.75
2023-03-31T18:22:10.220Z,15.77
2023-03-31T18:24:38.477Z,15.98
2023-03-31T18:27:05.779Z,15.23
2023-03-31T18:29:32.776Z,16.83
2023-03-31T18:32:00.124Z,13.65
2023-03-31T18:34:27.293Z,15.43
2023-03-31T18:36:54.670Z,19.65
2023-03-31T18:39:22.159Z,18.25
2023-03-31T18:41:49.299Z,20.20
2023-03-31T18:44:17.470Z,20.92
2023-03-31T18:46:45.132Z,19.80
2023-03-31T18:49:12.085Z,25.58
2023-03-31T18:51:39.222Z,25.58
2023-03-31T18:54:06.262Z,27.25
2023-03-31T18:56:33.390Z,31.92
2023-03-31T18:59:00.191Z,35.42
2023-03-31T19:01:27.484Z,31.50
2023-03-31T19:03:54.463Z,31.40
2023-03-31T19:06:22.525Z,31.35
2023-03-31T19:08:49.488Z,30.92
2023-03-31T19:11:17.063Z,33.63
2023-03-31T19:13:44.009Z,32.63
2023-03-31T19:16:12.311Z,32.78
2023-03-31T19:18:39.535Z,31.63
2023-03-31T19:21:06.776Z,29.75
2023-03-31T19:23:34.206Z,29.73
2023-03-31T19:26:02.988Z,31.33
2023-03-31T19:28:30.556Z,30.95
2023-03-31T19:30:58.043Z,29.50
2023-03-31T19:33:25.552Z,28.42
2023-03-31T19:35:52.918Z,25.25
2023-03-31T19:38:21.632Z,27.40
2023-03-31T19:40:49.120Z,25.10
2023-03-31T19:43:23.310Z,25.95
2023-03-31T19:45:52.928Z,26.90
2023-03-31T19:48:20.118Z,23.75
2023-03-31T19:50:51.151Z,20.35
2023-03-31T19:53:18.558Z,20.10
2023-03-31T19:55:57.508Z,20.85
2023-03-31T20:02:53.369Z,13.15
2023-03-31T20:05:21.038Z,12.10
2023-03-31T20:07:48.076Z,10.45
2023-03-31T20:10:15.960Z,10.23
2023-03-31T20:12:43.273Z,9.25
2023-03-31T20:15:10.557Z,8.52
2023-03-31T20:17:38.659Z,9.20
2023-03-31T20:20:06.380Z,8.07
2023-03-31T20:22:33.313Z,7.45
2023-03-31T20:25:01.088Z,10.25
2023-03-31T20:27:28.066Z,10.43
2023-03-31T20:29:55.620Z,10.23
2023-03-31T20:32:24.166Z,8.82
2023-03-31T20:34:51.746Z,9.48
2023-03-31T20:37:19.070Z,9.70
2023-03-31T20:39:46.556Z,7.53
2023-03-31T20:42:13.360Z,6.65
2023-03-31T20:44:41.085Z,7.30
2023-03-31T20:47:08.350Z,5.78
2023-03-31T20:49:35.836Z,4.90
2023-03-31T20:52:02.713Z,4.35
2023-03-31T20:54:29.841Z,5.55
2023-03-31T20:56:56.718Z,6.18
2023-03-31T20:59:24.071Z,4.07
2023-03-31T21:01:50.863Z,3.35
2023-03-31T21:04:18.081Z,3.40
2023-03-31T21:06:46.448Z,3.90
2023-03-31T21:09:13.965Z,3.47
2023-03-31T21:11:40.913Z,4.68
2023-03-31T21:14:10.226Z,3.17
2023-03-31T21:16:37.515Z,2.35
2023-03-31T21:19:04.659Z,2.60
2023-03-31T21:21:31.608Z,4.38
2023-03-31T21:23:58.926Z,3.13
2023-03-31T21:26:25.907Z,2.63
2023-03-31T21:28:55.590Z,3.88
2023-03-31T21:31:24.256Z,3.05
2023-03-31T21:33:52.273Z,5.38
2023-03-31T21:36:22.446Z,3.03
2023-03-31T21:38:50.552Z,4.70
2023-03-31T21:41:19.129Z,3.75
2023-03-31T21:43:46.456Z,3.38
2023-03-31T21:46:20.792Z,2.90
2023-03-31T21:48:48.884Z,3.28
2023-03-31T21:51:17.069Z,2.22
2023-03-31T21:53:44.398Z,3.35
2023-03-31T21:56:11.226Z,3.28
2023-03-31T21:58:38.359Z,4.38
2023-03-31T22:01:05.348Z,2.30
2023-03-31T22:03:34.603Z,3.70
2023-03-31T22:06:03.484Z,3.72
2023-03-31T22:08:31.623Z,6.20
2023-03-31T22:11:00.344Z,5.07
2023-03-31T22:13:28.124Z,3.45
2023-03-31T22:15:54.943Z,2.67
2023-03-31T22:18:22.163Z,3.33
2023-03-31T22:20:49.188Z,3.10
2023-03-31T22:23:16.739Z,3.08
2023-03-31T22:25:43.688Z,2.67
2023-03-31T22:28:16.128Z,3.40
2023-03-31T22:30:42.965Z,5.18
2023-03-31T22:33:10.083Z,3.47
2023-03-31T22:35:37.048Z,3.58
2023-03-31T22:38:06.102Z,19.02
2023-03-31T22:40:34.636Z,23.30
2023-03-31T22:43:01.839Z,20.40
2023-03-31T22:45:28.614Z,22.95
2023-03-31T22:47:56.569Z,20.08
2023-03-31T22:50:23.848Z,24.80
2023-03-31T22:52:50.966Z,19.80
2023-03-31T22:55:17.770Z,18.23
2023-03-31T22:57:44.962Z,19.65
2023-03-31T23:00:12.870Z,19.73
2023-03-31T23:02:40.648Z,18.58
2023-03-31T23:05:08.004Z,15.70
2023-03-31T23:07:35.174Z,18.95
2023-03-31T23:10:02.230Z,14.05
2023-03-31T23:12:29.411Z,16.55
2023-03-31T23:14:56.427Z,15.07
2023-03-31T23:17:23.630Z,14.70
2023-03-31T23:19:50.534Z,14.10
2023-03-31T23:22:19.069Z,11.00
2023-03-31T23:24:46.615Z,13.65
2023-03-31T23:27:13.622Z,11.35
2023-03-31T23:29:41.427Z,14.60
2023-03-31T23:32:08.548Z,14.13
2023-03-31T23:34:35.413Z,15.20
2023-03-31T23:37:02.428Z,12.60
2023-03-31T23:39:29.285Z,12.35
2023-03-31T23:41:57.238Z,9.82
2023-03-31T23:44:23.970Z,11.18
2023-03-31T23:46:51.284Z,10.68
2023-03-31T23:49:18.113Z,10.75
2023-03-31T23:51:45.290Z,9.52
2023-03-31T23:54:12.310Z,10.60
2023-03-31T23:56:39.400Z,10.60
2023-03-31T23:59:06.507Z,7.00
